Time,TemperatureF,DewpointF,PressureIn,WindDirection,WindDirectionDegrees,WindSpeedMPH,WindSpeedGustMPH,Humidity,HourlyPrecipIn,Conditions,Clouds,dailyrainin,SoftwareType,DateUTC
2013-02-18 00:08:00,34.9,27.0,29.89,ESE,122,4.0,8.0,72,0.00,,,0.00,weatherlink.com 1.10,2013-02-18 06:08:00,
2013-02-18 00:23:00,34.8,27.0,29.89,SE,141,3.0,7.0,73,0.00,,,0.00,weatherlink.com 1.10,2013-02-18 06:23:00,
2013-02-18 00:39:00,34.5,27.0,29.88,SE,126,1.0,6.0,74,0.00,,,0.00,weatherlink.com 1.10,2013-02-18 06:39:00,
2013-02-18 00:53:00,34.6,27.0,29.87,SE,131,3.0,5.0,74,0.00,,,0.00,weatherlink.com 1.10,2013-02-18 06:53:00,
2013-02-18 01:09:00,34.6,27.0,29.86,SE,144,4.0,6.0,75,0.00,,,0.00,weatherlink.com 1.10,2013-02-18 07:09:00,
2013-02-18 01:23:00,34.5,27.0,29.86,ESE,106,4.0,6.0,75,0.00,,,0.00,weatherlink.com 1.10,2013-02-18 07:23:00,
2013-02-18 01:38:00,34.7,28.0,29.86,SE,124,2.0,5.0,76,0.00,,,0.00,weatherlink.com 1.10,2013-02-18 07:38:00,
2013-02-18 01:53:00,34.8,28.0,29.85,SE,127,2.0,4.0,76,0.00,,,0.00,weatherlink.com 1.10,2013-02-18 07:53:00,
2013-02-18 02:08:00,34.8,28.0,29.84,ESE,117,3.0,5.0,77,0.00,,,0.00,weatherlink.com 1.10,2013-02-18 08:08:00,
2013-02-18 02:24:00,35.1,29.0,29.83,ESE,118,2.0,5.0,77,0.00,,,0.00,weatherlink.com 1.10,2013-02-18 08:24:00,
2013-02-18 02:39:00,34.9,28.0,29.82,SE,131,2.0,5.0,77,0.00,,,0.00,weatherlink.com 1.10,2013-02-18 08:39:00,
2013-02-18 02:54:00,34.9,29.0,29.81,SE,132,4.0,8.0,78,0.00,,,0.00,weatherlink.com 1.10,2013-02-18 08:54:00,
2013-02-18 03:09:00,35.1,29.0,29.80,SE,130,3.0,6.0,78,0.00,,,0.00,weatherlink.com 1.10,2013-02-18 09:09:00,
2013-02-18 03:24:00,35.1,29.0,29.80,ESE,122,4.0,7.0,78,0.00,,,0.00,weatherlink.com 1.10,2013-02-18 09:24:00,
2013-02-18 03:39:00,35.3,29.0,29.79,SE,124,2.0,5.0,78,0.00,,,0.00,weatherlink.com 1.10,2013-02-18 09:39:00,
2013-02-18 03:54:00,35.4,29.0,29.79,ESE,120,3.0,6.0,78,0.00,,,0.00,weatherlink.com 1.10,2013-02-18 09:54:00,
2013-02-18 04:08:00,35.3,29.0,29.78,SE,143,2.0,6.0,79,0.00,,,0.00,weatherlink.com 1.10,2013-02-18 10:08:00,
2013-02-18 04:24:00,35.3,29.0,29.77,SSE,148,2.0,5.0,79,0.00,,,0.00,weatherlink.com 1.10,2013-02-18 10:24:00,
2013-02-18 04:39:00,35.4,30.0,29.77,SE,125,3.0,6.0,79,0.00,,,0.00,weatherlink.com 1.10,2013-02-18 10:39:00,
2013-02-18 04:54:00,35.5,30.0,29.77,SE,139,3.0,5.0,80,0.00,,,0.00,weatherlink.com 1.10,2013-02-18 10:54:00,
2013-02-18 05:09:00,35.7,30.0,29.76,SE,139,2.0,8.0,80,0.00,,,0.00,weatherlink.com 1.10,2013-02-18 11:09:00,
2013-02-18 05:25:00,36.0,30.0,29.75,SSE,153,4.0,9.0,80,0.00,,,0.00,weatherlink.com 1.10,2013-02-18 11:25:00,
2013-02-18 05:55:00,36.2,31.0,29.74,SSE,149,3.0,6.0,81,0.00,,,0.00,weatherlink.com 1.10,2013-02-18 11:55:00,
2013-02-18 06:09:00,36.3,31.0,29.73,ESE,118,3.0,5.0,82,0.00,,,0.00,weatherlink.com 1.10,2013-02-18 12:09:00,
2013-02-18 06:25:00,36.7,32.0,29.73,SE,124,4.0,7.0,82,0.00,,,0.00,weatherlink.com 1.10,2013-02-18 12:25:00,
2013-02-18 06:39:00,37.0,32.0,29.73,SE,131,5.0,12.0,82,0.00,,,0.00,weatherlink.com 1.10,2013-02-18 12:39:00,
2013-02-18 06:55:00,37.5,32.0,29.72,SE,136,4.0,8.0,81,0.00,,,0.00,weatherlink.com 1.10,2013-02-18 12:55:00,
2013-02-18 07:10:00,37.9,33.0,29.72,SSE,148,5.0,13.0,81,0.00,,,0.00,weatherlink.com 1.10,2013-02-18 13:10:00,
2013-02-18 07:25:00,38.4,33.0,29.72,SE,143,5.0,12.0,82,0.00,,,0.00,weatherlink.com 1.10,2013-02-18 13:25:00,
2013-02-18 07:41:00,39.6,34.0,29.71,South,187,8.0,15.0,80,0.00,,,0.00,weatherlink.com 1.10,2013-02-18 13:41:00,
2013-02-18 07:55:00,40.6,35.0,29.71,SSE,149,5.0,13.0,79,0.00,,,0.00,weatherlink.com 1.10,2013-02-18 13:55:00,
2013-02-18 08:11:00,41.4,35.0,29.71,SE,136,7.0,16.0,78,0.00,,,0.00,weatherlink.com 1.10,2013-02-18 14:11:00,
2013-02-18 08:26:00,42.6,36.0,29.71,SSW,201,12.0,20.0,77,0.00,,,0.00,weatherlink.com 1.10,2013-02-18 14:26:00,
2013-02-18 08:40:00,43.9,36.0,29.70,SE,127,11.0,19.0,75,0.00,,,0.00,weatherlink.com 1.10,2013-02-18 14:40:00,
2013-02-18 08:56:00,45.1,37.0,29.70,South,184,16.0,26.0,74,0.00,,,0.00,weatherlink.com 1.10,2013-02-18 14:56:00,
2013-02-18 09:11:00,45.7,37.0,29.69,SSE,165,12.0,19.0,73,0.00,,,0.00,weatherlink.com 1.10,2013-02-18 15:11:00,
2013-02-18 09:26:00,46.9,38.0,29.69,SE,134,13.0,25.0,72,0.00,,,0.00,weatherlink.com 1.10,2013-02-18 15:26:00,
2013-02-18 09:41:00,48.2,39.0,29.70,South,184,12.0,21.0,70,0.00,,,0.00,weatherlink.com 1.10,2013-02-18 15:41:00,
2013-02-18 09:55:00,48.8,39.0,29.69,SW,232,9.0,21.0,70,0.00,,,0.00,weatherlink.com 1.10,2013-02-18 15:55:00,
2013-02-18 10:11:00,50.0,40.0,29.69,SSE,167,16.0,18.0,69,0.00,,,0.00,weatherlink.com 1.10,2013-02-18 16:11:00,
2013-02-18 10:27:00,51.5,41.0,29.68,SE,146,7.0,25.0,68,0.00,,,0.00,weatherlink.com 1.10,2013-02-18 16:27:00,
2013-02-18 10:42:00,52.3,41.0,29.68,South,172,16.0,26.0,66,0.00,,,0.00,weatherlink.com 1.10,2013-02-18 16:42:00,
2013-02-18 10:57:00,52.7,42.0,29.67,WSW,243,12.0,26.0,66,0.00,,,0.00,weatherlink.com 1.10,2013-02-18 16:57:00,
2013-02-18 11:12:00,53.4,42.0,29.66,SW,216,16.0,23.0,66,0.00,,,0.00,weatherlink.com 1.10,2013-02-18 17:12:00,
2013-02-18 11:27:00,53.6,42.0,29.66,SE,136,15.0,24.0,66,0.00,,,0.00,weatherlink.com 1.10,2013-02-18 17:27:00,
2013-02-18 11:43:00,54.3,43.0,29.65,SSW,208,8.0,25.0,66,0.00,,,0.00,weatherlink.com 1.10,2013-02-18 17:43:00,
2013-02-18 11:57:00,55.0,44.0,29.64,South,184,11.0,21.0,66,0.00,,,0.00,weatherlink.com 1.10,2013-02-18 17:57:00,
2013-02-18 12:13:00,55.3,44.0,29.64,SW,232,12.0,18.0,66,0.00,,,0.00,weatherlink.com 1.10,2013-02-18 18:13:00,
2013-02-18 12:27:00,55.1,44.0,29.63,SE,128,10.0,27.0,67,0.00,,,0.00,weatherlink.com 1.10,2013-02-18 18:27:00,
2013-02-18 12:43:00,54.7,44.0,29.61,SSW,211,8.0,28.0,68,0.00,,,0.00,weatherlink.com 1.10,2013-02-18 18:43:00,
2013-02-18 12:58:00,54.6,45.0,29.61,SSW,194,8.0,18.0,69,0.00,,,0.00,weatherlink.com 1.10,2013-02-18 18:58:00,
2013-02-18 13:13:00,54.8,45.0,29.59,SW,217,20.0,20.0,70,0.00,,,0.00,weatherlink.com 1.10,2013-02-18 19:13:00,
2013-02-18 13:28:00,55.0,45.0,29.58,South,191,15.0,23.0,70,0.00,,,0.00,weatherlink.com 1.10,2013-02-18 19:28:00,
2013-02-18 13:42:00,55.3,46.0,29.57,South,181,10.0,26.0,70,0.00,,,0.00,weatherlink.com 1.10,2013-02-18 19:42:00,
2013-02-18 13:58:00,55.0,46.0,29.57,SSE,163,11.0,29.0,73,0.00,,,0.00,weatherlink.com 1.10,2013-02-18 19:58:00,
2013-02-18 14:13:00,54.9,46.0,29.56,SSE,158,14.0,23.0,73,0.00,,,0.00,weatherlink.com 1.10,2013-02-18 20:13:00,
2013-02-18 14:29:00,53.5,47.0,29.55,SSE,167,15.0,22.0,79,0.00,,,0.00,weatherlink.com 1.10,2013-02-18 20:29:00,
2013-02-18 14:43:00,52.2,48.0,29.54,SE,139,20.0,28.0,84,0.01,,,0.01,weatherlink.com 1.10,2013-02-18 20:43:00,
2013-02-18 14:59:00,51.4,48.0,29.52,ESE,110,9.0,22.0,87,0.02,,,0.02,weatherlink.com 1.10,2013-02-18 20:59:00,
2013-02-18 15:13:00,51.6,48.0,29.51,SE,145,7.0,22.0,87,0.02,,,0.02,weatherlink.com 1.10,2013-02-18 21:13:00,
2013-02-18 15:29:00,51.8,48.0,29.50,SSE,161,16.0,29.0,85,0.01,,,0.02,weatherlink.com 1.10,2013-02-18 21:29:00,
2013-02-18 15:44:00,51.7,47.0,29.50,South,191,10.0,26.0,85,0.01,,,0.02,weatherlink.com 1.10,2013-02-18 21:44:00,
2013-02-18 15:58:00,51.4,47.0,29.49,SSW,205,9.0,23.0,85,0.00,,,0.02,weatherlink.com 1.10,2013-02-18 21:58:00,
2013-02-18 16:15:00,51.0,47.0,29.48,South,173,9.0,22.0,87,0.01,,,0.03,weatherlink.com 1.10,2013-02-18 22:15:00,
2013-02-18 16:28:00,50.4,47.0,29.47,SSE,156,4.0,14.0,89,0.03,,,0.05,weatherlink.com 1.10,2013-02-18 22:28:00,
2013-02-18 16:44:00,49.9,47.0,29.46,SSE,153,7.0,14.0,90,0.04,,,0.06,weatherlink.com 1.10,2013-02-18 22:44:00,
2013-02-18 16:59:00,50.1,47.0,29.47,SW,236,6.0,15.0,89,0.04,,,0.06,weatherlink.com 1.10,2013-02-18 22:59:00,
2013-02-18 17:15:00,49.7,47.0,29.49,South,186,6.0,22.0,91,0.11,,,0.14,weatherlink.com 1.10,2013-02-18 23:15:00,
2013-02-18 17:29:00,41.5,39.0,29.53,WNW,287,6.0,19.0,89,0.26,,,0.31,weatherlink.com 1.10,2013-02-18 23:29:00,
2013-02-18 17:45:00,39.0,37.0,29.55,NW,323,4.0,11.0,93,0.31,,,0.37,weatherlink.com 1.10,2013-02-18 23:45:00,
2013-02-18 17:59:00,38.3,37.0,29.55,WNW,297,4.0,12.0,94,0.36,,,0.42,weatherlink.com 1.10,2013-02-18 23:59:00,
2013-02-18 18:15:00,36.6,35.0,29.59,NW,309,6.0,15.0,92,0.30,,,0.45,weatherlink.com 1.10,2013-02-19 00:15:00,
2013-02-18 18:29:00,34.8,33.0,29.61,WNW,300,6.0,13.0,93,0.14,,,0.46,weatherlink.com 1.10,2013-02-19 00:29:00,
2013-02-18 18:45:00,34.3,33.0,29.61,NNW,342,7.0,15.0,94,0.09,,,0.46,weatherlink.com 1.10,2013-02-19 00:45:00,
2013-02-18 18:59:00,34.0,33.0,29.62,West,267,12.0,19.0,94,0.04,,,0.46,weatherlink.com 1.10,2013-02-19 00:59:00,
2013-02-18 19:15:00,33.8,32.0,29.63,NW,309,6.0,15.0,94,0.02,,,0.47,weatherlink.com 1.10,2013-02-19 01:15:00,
2013-02-18 19:46:00,33.2,32.0,29.66,WNW,287,3.0,17.0,94,0.01,,,0.47,weatherlink.com 1.10,2013-02-19 01:46:00,
2013-02-18 20:00:00,32.6,31.0,29.67,WNW,293,13.0,18.0,93,0.01,,,0.47,weatherlink.com 1.10,2013-02-19 02:00:00,
2013-02-18 20:15:00,32.0,29.0,29.69,WSW,250,10.0,23.0,90,0.00,,,0.47,weatherlink.com 1.10,2013-02-19 02:15:00,
2013-02-18 20:31:00,31.7,29.0,29.71,WNW,283,6.0,22.0,88,0.00,,,0.47,weatherlink.com 1.10,2013-02-19 02:31:00,
2013-02-18 20:46:00,31.5,28.0,29.73,WNW,287,8.0,15.0,86,0.00,,,0.47,weatherlink.com 1.10,2013-02-19 02:46:00,
2013-02-18 21:00:00,31.2,27.0,29.73,West,279,9.0,18.0,84,0.00,,,0.47,weatherlink.com 1.10,2013-02-19 03:00:00,
2013-02-18 21:17:00,30.5,26.0,29.75,WNW,291,7.0,20.0,84,0.00,,,0.47,weatherlink.com 1.10,2013-02-19 03:17:00,
2013-02-18 21:32:00,30.1,24.0,29.76,NW,304,12.0,23.0,79,0.00,,,0.47,weatherlink.com 1.10,2013-02-19 03:32:00,
2013-02-18 21:46:00,29.8,24.0,29.77,WNW,290,4.0,15.0,80,0.00,,,0.47,weatherlink.com 1.10,2013-02-19 03:46:00,
2013-02-18 22:02:00,29.8,25.0,29.78,WNW,293,8.0,14.0,82,0.00,,,0.47,weatherlink.com 1.10,2013-02-19 04:02:00,
2013-02-18 22:16:00,29.8,24.0,29.78,WNW,300,8.0,16.0,80,0.00,,,0.47,weatherlink.com 1.10,2013-02-19 04:16:00,
2013-02-18 22:47:00,28.9,22.0,29.80,West,274,5.0,17.0,76,0.00,,,0.47,weatherlink.com 1.10,2013-02-19 04:47:00,
2013-02-18 23:16:00,27.8,21.0,29.82,WNW,295,10.0,19.0,74,0.00,,,0.47,weatherlink.com 1.10,2013-02-19 05:16:00,
2013-02-18 23:32:00,27.4,21.0,29.83,WNW,291,14.0,18.0,77,0.00,,,0.47,weatherlink.com 1.10,2013-02-19 05:32:00,
2013-02-18 23:46:00,27.3,21.0,29.83,WNW,302,2.0,14.0,78,0.00,,,0.47,weatherlink.com 1.10,2013-02-19 05:46:00,